Latest Coastal Weather Observations for Alva Beach

IDQ60701

Issued at 9:31 pm EST Saturday 3 December 2016 (issued every 10 minutes, with the page automatically refreshed every 10 minutes)

About coastal observations | Map of coastal stations | Coastal observations for QLD | Marine services | Other Formats
Station Details ID: 033295 Name: ALVA BEACH Lat: -19.46 Lon: 147.48 Height: 7.5 m
Data from the previous 72 hours. | See also: Recent months at Alva Beach
Date/Time
EST
Temp
°C
Wind Pressure Rain since
9am
mm
Weather Cloud Vis
km
Sea
Height
m
Swell
Dir  Spd
kts
Gust
kts
hPa Trend Height
m
Period
s
Dir
03/09:30pm 26.4 NE 9 12 1013.8 - 0.0 - - - - - - -
03/09:00pm 26.5 NE 9 11 1013.6 - 0.0 - - - - - - -
03/08:30pm 26.6 NE 9 12 1013.4 - 0.0 - - - - - - -
03/08:00pm 26.7 NE 10 13 1013.2 - 0.0 - - - - - - -
03/07:30pm 26.7 NE 11 14 1013.0 - 0.0 - - - - - - -
03/07:00pm 26.9 NE 11 14 1012.8 - 0.0 - - - - - - -
03/06:30pm 27.3 NE 11 15 1012.5 - 0.0 - - - - - - -
03/06:00pm 27.4 NE 12 14 1012.2 - 0.0 - - - - - - -
03/05:30pm 27.8 NE 11 15 1012.2 - 0.0 - - - - - - -
03/05:00pm 28.1 NE 12 15 1012.1 - 0.0 - - - - - - -
03/04:30pm 28.3 NE 11 15 1011.9 - 0.0 - - - - - - -
03/04:00pm 28.7 NE 11 14 1011.8 - 0.0 - - - - - - -
03/03:30pm 28.7 NE 10 13 1011.9 - 0.0 - - - - - - -
03/03:00pm 29.1 NE 10 13 1012.1 - 0.0 - - - - - - -
03/02:30pm 29.1 NE 11 14 1012.3 - 0.0 - - - - - - -
03/02:00pm 28.9 NE 9 11 1012.5 - 0.0 - - - - - - -
03/01:30pm 29.0 NE 9 11 1012.8 - 0.0 - - - - - - -
03/01:00pm 28.9 NNE 9 12 1013.2 - 0.0 - - - - - - -
03/12:30pm 28.9 NNE 9 11 1013.2 - 0.0 - - - - - - -
03/12:00pm 29.2 NE 8 11 1013.4 - 0.0 - - - - - - -
03/11:30am 29.2 NE 9 12 1013.7 - 0.0 - - - - - - -
03/11:00am 28.9 NNE 9 11 1013.8 - 0.0 - - - - - - -
03/10:30am 28.7 NNE 8 10 1014.0 - 0.0 - - - - - - -
03/10:00am 28.9 NNE 8 10 1014.1 - 0.0 - - - - - - -
03/09:30am 28.7 NNE 8 11 1014.1 - 0.0 - - - - - - -
03/09:00am 28.7 NNE 7 9 1014.1 - 1.2 Recent precip. - - - - - -
03/08:30am 28.1 NNE 6 8 1014.1 - 1.2 - - - - - - -
03/08:00am 28.3 NNE 5 7 1013.7 - 1.0 - - - - - - -
03/07:30am 27.6 N 5 7 1013.4 - 1.0 - - - - - - -
03/07:00am 27.5 N 4 6 1013.0 - 1.0 - - - - - - -
03/06:30am 26.6 NNW 3 5 1012.7 - 1.0 - - - - - - -
03/06:00am 25.5 NNW 4 6 1012.6 - 1.0 - - - - - - -
03/05:30am 24.8 NNW 3 5 1012.2 - 1.0 - - - - - - -
03/05:00am 24.9 NNW 5 6 1012.0 - 1.0 - - - - - - -
03/04:30am 24.8 NNW 4 5 1011.9 - 1.0 - - - - - - -
03/04:00am 24.5 NW 3 4 1011.6 - 1.0 - - - - - - -
03/03:30am 25.0 NW 3 5 1011.5 - 1.0 - - - - - - -
03/03:00am 25.3 NNW 4 6 1011.5 - 0.4 Rain - - - - - -
03/02:30am 25.7 NNW 4 6 1011.6 - 0.0 - - - - - - -
03/02:00am 25.9 N 4 9 1011.7 - 0.0 - - - - - - -
03/01:30am 26.1 N 5 8 1011.6 - 0.0 - - - - - - -
03/01:00am 26.2 N 7 11 1011.9 - 0.0 - - - - - - -
03/12:30am 26.3 N 8 10 1012.4 - 0.0 - - - - - - -
03/12:00am 26.4 N 9 12 1012.8 - 0.0 - - - - - - -
 
Date/Time
EST
Temp
°C
Wind Pressure Rain since
9am
mm
Weather Cloud Vis
km
Sea
Height
m
Swell
Dir  Spd
kts
Gust
kts
hPa Trend Height
m
Period
s
Dir
02/11:30pm 26.6 NNE 9 11 1013.2 - 0.0 - - - - - - -
02/11:00pm 26.8 NNE 10 11 1013.3 - 0.0 - - - - - - -
02/10:30pm 26.8 NNE 9 12 1013.4 - 0.0 - - - - - - -
02/10:00pm 26.9 NNE 10 13 1013.4 - 0.0 - - - - - - -
02/09:30pm 26.8 NNE 11 14 1013.2 - 0.0 - - - - - - -
02/09:00pm 26.9 NNE 12 14 1013.0 - 0.0 - - - - - - -
02/08:30pm 27.0 NNE 13 15 1012.6 - 0.0 - - - - - - -
02/08:00pm 26.9 NNE 15 17 1012.0 - 0.0 - - - - - - -
02/07:30pm 27.0 NNE 14 16 1011.9 - 0.0 - - - - - - -
02/07:00pm 27.0 NNE 13 16 1011.6 - 0.0 - - - - - - -
02/06:30pm 27.0 NNE 12 14 1011.4 - 0.0 - - - - - - -
02/06:00pm 27.3 NNE 12 13 1011.3 - 0.0 - - - - - - -
02/05:30pm 27.9 NNE 13 15 1010.9 - 0.0 - - - - - - -
02/05:00pm 28.2 NNE 13 15 1010.9 - 0.0 - - - - - - -
02/04:30pm 28.5 NNE 11 13 1011.0 - 0.0 - - - - - - -
02/04:00pm 28.7 NNE 11 13 1010.9 - 0.0 - - - - - - -
02/03:30pm 29.1 NNE 12 15 1010.9 - 0.0 - - - - - - -
02/03:00pm 29.2 N 12 14 1011.2 - 0.0 - - - - - - -
02/02:30pm 29.2 NNE 13 16 1011.3 - 0.0 - - - - - - -
02/02:00pm 29.3 NNE 13 15 1011.5 - 0.0 - - - - - - -
02/01:30pm 29.2 NNE 12 14 1011.7 - 0.0 - - - - - - -
02/01:00pm 29.5 NNE 12 14 1012.2 - 0.0 - - - - - - -
02/12:30pm 29.7 NNE 14 16 1012.2 - 0.0 - - - - - - -
02/12:00pm 30.0 N 12 15 1012.3 - 0.0 - - - - - - -
02/11:30am 29.7 N 11 13 1012.3 - 0.0 - - - - - - -
02/11:00am 29.6 N 11 13 1012.6 - 0.0 - - - - - - -
02/10:30am 29.7 N 11 13 1012.9 - 0.0 - - - - - - -
02/10:00am 29.3 N 10 13 1013.1 - 0.0 - - - - - - -
02/09:30am 29.4 N 7 12 1013.1 - 0.0 - - - - - - -
02/09:00am 28.9 NW 6 11 1013.2 - 1.6 Recent precip. - - - - - -
02/08:30am 29.2 NNW 5 10 1012.8 - 1.6 - - - - - - -
02/08:00am 28.5 N 8 11 1012.6 - 1.4 - - - - - - -
02/07:30am 28.0 N 7 12 1012.5 - 1.4 - - - - - - -
02/07:00am 27.5 N 5 7 1012.4 - 1.4 - - - - - - -
02/06:30am 26.7 NNW 4 6 1012.1 - 1.4 - - - - - - -
02/06:00am 25.8 NNW 4 6 1011.8 - 1.4 - - - - - - -
02/05:30am 25.3 NNW 4 6 1011.2 - 1.4 - - - - - - -
02/05:00am 25.1 NNW 3 6 1011.1 - 1.4 - - - - - - -
02/04:30am 25.4 NNW 4 7 1011.0 - 1.4 - - - - - - -
02/04:00am 25.9 N 6 10 1010.8 - 1.4 - - - - - - -
02/03:30am 25.7 N 5 9 1010.6 - 1.4 - - - - - - -
02/03:00am 25.6 NNW 5 8 1010.5 - 0.6 Rain - - - - - -
02/02:30am 25.6 NNW 4 6 1010.5 - 0.0 - - - - - - -
02/02:00am 25.8 NNW 5 7 1010.4 - 0.0 - - - - - - -
02/01:30am 25.9 NNW 5 8 1010.5 - 0.0 - - - - - - -
02/01:00am 26.0 NNW 4 7 1011.0 - 0.0 - - - - - - -
02/12:30am 26.0 NNW 4 6 1011.0 - 0.0 - - - - - - -
02/12:00am 26.1 NNW 5 7 1011.0 - 0.0 - - - - - - -
 
Date/Time
EST
Temp
°C
Wind Pressure Rain since
9am
mm
Weather Cloud Vis
km
Sea
Height
m
Swell
Dir  Spd
kts
Gust
kts
hPa Trend Height
m
Period
s
Dir
01/11:30pm 26.2 NNW 5 8 1011.3 - 0.0 - - - - - - -
01/11:00pm 26.2 NNW 4 7 1011.3 - 0.0 - - - - - - -
01/10:30pm 26.3 NNW 5 9 1011.2 - 0.0 - - - - - - -
01/10:00pm 26.6 N 6 9 1011.5 - 0.0 - - - - - - -
01/09:30pm 26.7 N 7 10 1011.3 - 0.0 - - - - - - -
01/09:00pm 26.7 N 7 10 1010.8 - 0.0 - - - - - - -
01/08:30pm 26.7 N 5 8 1010.9 - 0.0 - - - - - - -
01/08:00pm 26.7 N 5 8 1010.8 - 0.0 - - - - - - -
01/07:30pm 26.8 N 7 11 1010.4 - 0.0 - - - - - - -
01/07:00pm 26.8 N 8 10 1010.5 - 0.0 - - - - - - -
01/06:30pm 26.9 NNE 11 14 1010.0 - 0.0 - - - - - - -
01/06:00pm 27.3 NNE 12 13 1009.6 - 0.0 - - - - - - -
01/05:30pm 27.5 NNE 14 16 1009.1 - 0.0 - - - - - - -
01/05:00pm 27.8 NNE 13 15 1009.0 - 0.0 - - - - - - -
01/04:30pm 28.0 NE 12 14 1009.0 - 0.0 - - - - - - -
01/04:00pm 28.1 NE 11 13 1009.1 - 0.0 - - - - - - -
01/03:30pm 28.3 NE 12 13 1009.2 - 0.0 - - - - - - -
01/03:00pm 29.0 NNE 11 13 1009.6 - 0.0 - - - - - - -
01/02:30pm 28.8 NNE 11 14 1009.9 - 0.0 - - - - - - -
01/02:00pm 29.2 NNE 11 14 1010.1 - 0.0 - - - - - - -
01/01:30pm 29.4 NNE 11 13 1010.4 - 0.0 - - - - - - -
01/01:00pm 29.8 N 11 14 1010.9 - 0.0 - - - - - - -
01/12:30pm 29.7 N 11 13 1011.4 - 0.0 - - - - - - -
01/12:00pm 29.4 NNE 10 12 1011.9 - 0.0 - - - - - - -
01/11:30am 29.6 NNE 9 13 1012.3 - 0.0 - - - - - - -
01/11:00am 29.2 NNE 11 13 1012.6 - 0.0 - - - - - - -
01/10:30am 29.0 NNE 10 13 1012.8 - 0.0 - - - - - - -
01/10:00am 28.7 NNE 10 12 1012.9 - 0.0 - - - - - - -
01/09:30am 28.6 NNE 9 10 1012.9 - 0.0 - - - - - - -
01/09:00am 28.7 NNE 9 12 1012.9 - 0.0 - - - - - - -
01/08:30am 28.3 NNE 7 10 1013.1 - 0.0 - - - - - - -
01/08:00am 28.4 NNE 7 10 1013.0 - 0.0 - - - - - - -
01/07:30am 28.0 NNE 9 10 1012.5 - 0.0 - - - - - - -
01/07:00am 27.2 NNE 9 11 1011.8 - 0.0 - - - - - - -
01/06:30am 26.5 NNE 8 10 1011.5 - 0.0 - - - - - - -
01/06:00am 25.9 N 6 9 1011.2 - 0.0 - - - - - - -
01/05:30am 25.5 N 8 11 1010.6 - 0.0 - - - - - - -
01/05:00am 25.5 N 6 10 1010.1 - 0.0 - - - - - - -
01/04:30am 25.5 N 7 9 1010.1 - 0.0 - - - - - - -
01/04:00am 25.3 NNW 4 7 1010.0 - 0.0 - - - - - - -
01/03:30am 25.3 NNW 3 6 1009.9 - 0.0 - - - - - - -
01/03:00am 25.7 N 7 10 1009.9 - 0.0 - - - - - - -
01/02:30am 25.7 NNE 8 10 1010.1 - 0.0 - - - - - - -
01/02:00am 25.7 NNE 8 11 1010.2 - 0.0 - - - - - - -
01/01:30am 25.8 NNE 9 11 1010.2 - 0.0 - - - - - - -
01/01:00am 25.9 NNE 9 11 1010.3 - 0.0 - - - - - - -
01/12:30am 25.9 NNE 7 9 1010.5 - 0.0 - - - - - - -
01/12:00am 26.0 NNE 8 10 1010.8 - 0.0 - - - - - - -
 
Date/Time
EST
Temp
°C
Wind Pressure Rain since
9am
mm
Weather Cloud Vis
km
Sea
Height
m
Swell
Dir  Spd
kts
Gust
kts
hPa Trend Height
m
Period
s
Dir
30/11:30pm 26.1 NNE 8 10 1010.9 - 0.0 - - - - - - -
30/11:00pm 26.1 NE 7 9 1011.0 - 0.0 - - - - - - -
30/10:30pm 26.2 NNE 7 9 1011.0 - 0.0 - - - - - - -
30/10:00pm 26.3 NE 8 10 1010.5 - 0.0 - - - - - - -

Other Formats:

Comma delimited format used in spreadsheet applications
http://www.bom.gov.au/fwo/IDQ60701/IDQ60701.95296.axf

JavaScript Object Notation format (JSON) in row-major order
http://www.bom.gov.au/fwo/IDQ60701/IDQ60701.95296.json